sensor_id;sensor_type;location;lat;lon;timestamp;temperature;humidity
10889;DHT22;5497;51.388;6.780;2023-04-24T00:00:54;11.60;99.90
10889;DHT22;5497;51.388;6.780;2023-04-24T00:03:21;11.70;99.90
10889;DHT22;5497;51.388;6.780;2023-04-24T00:05:49;11.60;99.90
10889;DHT22;5497;51.388;6.780;2023-04-24T00:08:18;11.60;99.90
10889;DHT22;5497;51.388;6.780;2023-04-24T00:10:45;11.60;99.90
10889;DHT22;5497;51.388;6.780;2023-04-24T00:13:12;11.60;99.90
10889;DHT22;5497;51.388;6.780;2023-04-24T00:15:39;11.60;99.90
10889;DHT22;5497;51.388;6.780;2023-04-24T00:18:07;11.60;99.90
10889;DHT22;5497;51.388;6.780;2023-04-24T00:20:39;11.60;99.90
10889;DHT22;5497;51.388;6.780;2023-04-24T00:23:06;11.60;99.90
10889;DHT22;5497;51.388;6.780;2023-04-24T00:25:34;11.50;99.90
10889;DHT22;5497;51.388;6.780;2023-04-24T00:28:01;11.50;99.90
10889;DHT22;5497;51.388;6.780;2023-04-24T00:30:28;11.50;99.90
10889;DHT22;5497;51.388;6.780;2023-04-24T00:32:55;11.50;99.90
10889;DHT22;5497;51.388;6.780;2023-04-24T00:35:23;11.40;99.90
10889;DHT22;5497;51.388;6.780;2023-04-24T00:37:50;11.50;99.90
10889;DHT22;5497;51.388;6.780;2023-04-24T00:40:17;11.40;99.90
10889;DHT22;5497;51.388;6.780;2023-04-24T00:42:46;11.20;99.90
10889;DHT22;5497;51.388;6.780;2023-04-24T00:45:12;11.20;99.90
10889;DHT22;5497;51.388;6.780;2023-04-24T00:47:40;11.10;99.90
10889;DHT22;5497;51.388;6.780;2023-04-24T00:50:08;10.90;99.90
10889;DHT22;5497;51.388;6.780;2023-04-24T00:52:36;10.80;99.90
10889;DHT22;5497;51.388;6.780;2023-04-24T00:55:06;10.80;99.90
10889;DHT22;5497;51.388;6.780;2023-04-24T00:57:37;10.70;99.90
10889;DHT22;5497;51.388;6.780;2023-04-24T01:00:10;10.70;99.90
10889;DHT22;5497;51.388;6.780;2023-04-24T01:02:38;10.60;99.90
10889;DHT22;5497;51.388;6.780;2023-04-24T01:05:09;10.60;99.90
10889;DHT22;5497;51.388;6.780;2023-04-24T01:07:37;10.50;99.90
10889;DHT22;5497;51.388;6.780;2023-04-24T01:10:05;10.50;99.90
10889;DHT22;5497;51.388;6.780;2023-04-24T01:12:33;10.30;99.90
10889;DHT22;5497;51.388;6.780;2023-04-24T01:15:00;10.30;99.90
10889;DHT22;5497;51.388;6.780;2023-04-24T01:17:28;10.20;99.90
10889;DHT22;5497;51.388;6.780;2023-04-24T01:19:56;10.10;99.90
10889;DHT22;5497;51.388;6.780;2023-04-24T01:22:25;10.00;99.90
10889;DHT22;5497;51.388;6.780;2023-04-24T01:24:52;10.00;99.90
10889;DHT22;5497;51.388;6.780;2023-04-24T01:27:19;9.90;99.90
10889;DHT22;5497;51.388;6.780;2023-04-24T01:29:47;9.80;99.90
10889;DHT22;5497;51.388;6.780;2023-04-24T01:32:16;9.70;99.90
10889;DHT22;5497;51.388;6.780;2023-04-24T01:34:44;9.70;99.90
10889;DHT22;5497;51.388;6.780;2023-04-24T01:37:12;9.70;99.90
10889;DHT22;5497;51.388;6.780;2023-04-24T01:42:07;9.60;99.90
10889;DHT22;5497;51.388;6.780;2023-04-24T01:44:34;9.60;99.90
10889;DHT22;5497;51.388;6.780;2023-04-24T01:47:03;9.60;99.90
10889;DHT22;5497;51.388;6.780;2023-04-24T01:49:31;9.60;99.90
10889;DHT22;5497;51.388;6.780;2023-04-24T01:51:59;9.80;99.90
10889;DHT22;5497;51.388;6.780;2023-04-24T01:57:01;9.80;99.90
10889;DHT22;5497;51.388;6.780;2023-04-24T01:59:30;9.90;99.90
10889;DHT22;5497;51.388;6.780;2023-04-24T02:04:32;10.00;99.90
10889;DHT22;5497;51.388;6.780;2023-04-24T02:06:59;11.50;99.90
10889;DHT22;5497;51.388;6.780;2023-04-24T02:09:26;10.00;99.90
10889;DHT22;5497;51.388;6.780;2023-04-24T02:11:53;10.00;99.90
10889;DHT22;5497;51.388;6.780;2023-04-24T02:14:20;10.00;99.90
10889;DHT22;5497;51.388;6.780;2023-04-24T02:16:48;10.00;99.90
10889;DHT22;5497;51.388;6.780;2023-04-24T02:19:15;10.10;99.90
10889;DHT22;5497;51.388;6.780;2023-04-24T02:21:42;10.00;99.90
10889;DHT22;5497;51.388;6.780;2023-04-24T02:24:09;10.10;99.90
10889;DHT22;5497;51.388;6.780;2023-04-24T02:26:35;10.10;99.90
10889;DHT22;5497;51.388;6.780;2023-04-24T02:29:02;10.10;99.90
10889;DHT22;5497;51.388;6.780;2023-04-24T02:31:29;10.10;99.90
10889;DHT22;5497;51.388;6.780;2023-04-24T02:33:57;12.00;99.90
10889;DHT22;5497;51.388;6.780;2023-04-24T02:36:23;10.00;99.90
10889;DHT22;5497;51.388;6.780;2023-04-24T02:38:50;9.90;99.90
10889;DHT22;5497;51.388;6.780;2023-04-24T02:41:17;9.90;99.90
10889;DHT22;5497;51.388;6.780;2023-04-24T02:43:44;9.90;99.90
10889;DHT22;5497;51.388;6.780;2023-04-24T02:46:10;9.90;99.90
10889;DHT22;5497;51.388;6.780;2023-04-24T02:48:37;9.90;99.90
10889;DHT22;5497;51.388;6.780;2023-04-24T02:51:06;10.30;99.90
10889;DHT22;5497;51.388;6.780;2023-04-24T02:53:33;9.90;99.90
10889;DHT22;5497;51.388;6.780;2023-04-24T02:55:59;10.00;99.90
10889;DHT22;5497;51.388;6.780;2023-04-24T02:58:26;10.00;99.90
10889;DHT22;5497;51.388;6.780;2023-04-24T03:00:53;9.50;99.90
10889;DHT22;5497;51.388;6.780;2023-04-24T03:03:20;10.10;99.90
10889;DHT22;5497;51.388;6.780;2023-04-24T03:05:47;10.10;99.90
10889;DHT22;5497;51.388;6.780;2023-04-24T03:08:15;10.10;99.90
10889;DHT22;5497;51.388;6.780;2023-04-24T03:10:43;10.10;99.90
10889;DHT22;5497;51.388;6.780;2023-04-24T03:13:09;10.10;99.90
10889;DHT22;5497;51.388;6.780;2023-04-24T03:15:37;10.10;99.90
10889;DHT22;5497;51.388;6.780;2023-04-24T03:18:04;10.10;99.90
10889;DHT22;5497;51.388;6.780;2023-04-24T03:20:31;10.10;99.90
10889;DHT22;5497;51.388;6.780;2023-04-24T03:22:58;10.10;99.90
10889;DHT22;5497;51.388;6.780;2023-04-24T03:25:26;10.10;99.90
10889;DHT22;5497;51.388;6.780;2023-04-24T03:27:53;10.10;99.90
10889;DHT22;5497;51.388;6.780;2023-04-24T03:30:53;10.20;99.90
10889;DHT22;5497;51.388;6.780;2023-04-24T03:33:21;10.20;99.90
10889;DHT22;5497;51.388;6.780;2023-04-24T03:35:57;10.50;99.90
10889;DHT22;5497;51.388;6.780;2023-04-24T03:38:24;11.70;99.90
10889;DHT22;5497;51.388;6.780;2023-04-24T03:40:59;10.20;99.90
10889;DHT22;5497;51.388;6.780;2023-04-24T03:43:35;10.20;99.90
10889;DHT22;5497;51.388;6.780;2023-04-24T03:46:04;10.20;99.90
10889;DHT22;5497;51.388;6.780;2023-04-24T03:48:34;10.20;99.90
10889;DHT22;5497;51.388;6.780;2023-04-24T03:51:01;10.20;99.90
10889;DHT22;5497;51.388;6.780;2023-04-24T03:53:31;10.20;99.90
10889;DHT22;5497;51.388;6.780;2023-04-24T03:56:00;10.20;99.90
10889;DHT22;5497;51.388;6.780;2023-04-24T03:58:28;10.20;99.90
10889;DHT22;5497;51.388;6.780;2023-04-24T04:00:55;10.20;99.90
10889;DHT22;5497;51.388;6.780;2023-04-24T04:03:44;10.20;99.90
10889;DHT22;5497;51.388;6.780;2023-04-24T04:06:13;10.30;99.90
10889;DHT22;5497;51.388;6.780;2023-04-24T04:08:40;10.30;99.90
10889;DHT22;5497;51.388;6.780;2023-04-24T04:11:09;9.80;99.90
10889;DHT22;5497;51.388;6.780;2023-04-24T04:13:36;10.30;99.90
10889;DHT22;5497;51.388;6.780;2023-04-24T04:16:03;10.20;99.90
10889;DHT22;5497;51.388;6.780;2023-04-24T04:18:30;10.20;99.90
10889;DHT22;5497;51.388;6.780;2023-04-24T04:20:57;10.20;99.90
10889;DHT22;5497;51.388;6.780;2023-04-24T04:23:26;10.20;99.90
10889;DHT22;5497;51.388;6.780;2023-04-24T04:26:15;10.20;99.90
10889;DHT22;5497;51.388;6.780;2023-04-24T04:28:58;10.20;99.90
10889;DHT22;5497;51.388;6.780;2023-04-24T04:31:26;10.20;99.90
10889;DHT22;5497;51.388;6.780;2023-04-24T04:33:56;10.20;99.90
10889;DHT22;5497;51.388;6.780;2023-04-24T04:36:24;10.20;99.90
10889;DHT22;5497;51.388;6.780;2023-04-24T04:38:59;10.20;99.90
10889;DHT22;5497;51.388;6.780;2023-04-24T04:41:51;10.20;99.90
10889;DHT22;5497;51.388;6.780;2023-04-24T04:44:20;10.20;99.90
10889;DHT22;5497;51.388;6.780;2023-04-24T04:46:47;10.20;99.90
10889;DHT22;5497;51.388;6.780;2023-04-24T04:49:34;10.30;99.90
10889;DHT22;5497;51.388;6.780;2023-04-24T04:52:02;10.20;99.90
10889;DHT22;5497;51.388;6.780;2023-04-24T04:54:30;10.30;99.90
10889;DHT22;5497;51.388;6.780;2023-04-24T04:57:00;10.30;99.90
10889;DHT22;5497;51.388;6.780;2023-04-24T04:59:28;10.20;99.90
10889;DHT22;5497;51.388;6.780;2023-04-24T05:02:03;10.30;99.90
10889;DHT22;5497;51.388;6.780;2023-04-24T05:04:31;10.30;99.90
10889;DHT22;5497;51.388;6.780;2023-04-24T05:06:58;10.20;99.90
10889;DHT22;5497;51.388;6.780;2023-04-24T05:09:31;10.20;99.90
10889;DHT22;5497;51.388;6.780;2023-04-24T05:12:06;10.20;99.90
10889;DHT22;5497;51.388;6.780;2023-04-24T05:14:41;10.10;99.90
10889;DHT22;5497;51.388;6.780;2023-04-24T05:17:11;10.10;99.90
10889;DHT22;5497;51.388;6.780;2023-04-24T05:19:39;10.10;99.90
10889;DHT22;5497;51.388;6.780;2023-04-24T05:22:07;10.00;99.90
10889;DHT22;5497;51.388;6.780;2023-04-24T05:24:44;10.00;99.90
10889;DHT22;5497;51.388;6.780;2023-04-24T05:27:35;9.90;99.90
10889;DHT22;5497;51.388;6.780;2023-04-24T05:30:13;9.80;99.90
10889;DHT22;5497;51.388;6.780;2023-04-24T05:32:41;9.60;99.90
10889;DHT22;5497;51.388;6.780;2023-04-24T05:35:09;9.60;99.90
10889;DHT22;5497;51.388;6.780;2023-04-24T05:37:36;9.50;99.90
10889;DHT22;5497;51.388;6.780;2023-04-24T05:40:05;9.50;99.90
10889;DHT22;5497;51.388;6.780;2023-04-24T05:45:09;9.60;99.90
10889;DHT22;5497;51.388;6.780;2023-04-24T05:47:42;9.60;99.90
10889;DHT22;5497;51.388;6.780;2023-04-24T05:50:10;9.60;99.90
10889;DHT22;5497;51.388;6.780;2023-04-24T05:52:37;9.00;99.90
10889;DHT22;5497;51.388;6.780;2023-04-24T05:55:13;9.70;99.90
10889;DHT22;5497;51.388;6.780;2023-04-24T05:57:45;9.80;99.90
10889;DHT22;5497;51.388;6.780;2023-04-24T06:00:14;9.80;99.90
10889;DHT22;5497;51.388;6.780;2023-04-24T06:02:49;9.90;99.90
10889;DHT22;5497;51.388;6.780;2023-04-24T06:05:17;9.90;99.90
10889;DHT22;5497;51.388;6.780;2023-04-24T06:07:44;10.00;99.90
10889;DHT22;5497;51.388;6.780;2023-04-24T06:10:11;10.00;99.90
10889;DHT22;5497;51.388;6.780;2023-04-24T06:12:43;10.00;99.90
10889;DHT22;5497;51.388;6.780;2023-04-24T06:15:17;10.00;99.90
10889;DHT22;5497;51.388;6.780;2023-04-24T06:18:06;9.90;99.90
10889;DHT22;5497;51.388;6.780;2023-04-24T06:20:33;10.00;99.90
10889;DHT22;5497;51.388;6.780;2023-04-24T06:23:01;9.90;99.90
10889;DHT22;5497;51.388;6.780;2023-04-24T06:25:32;9.90;99.90
10889;DHT22;5497;51.388;6.780;2023-04-24T06:27:59;9.90;99.90
10889;DHT22;5497;51.388;6.780;2023-04-24T06:30:27;9.90;99.90
10889;DHT22;5497;51.388;6.780;2023-04-24T06:32:55;9.90;99.90
10889;DHT22;5497;51.388;6.780;2023-04-24T06:35:25;9.90;99.90
10889;DHT22;5497;51.388;6.780;2023-04-24T06:37:52;9.80;99.90
10889;DHT22;5497;51.388;6.780;2023-04-24T06:40:18;9.80;99.90
10889;DHT22;5497;51.388;6.780;2023-04-24T06:42:45;9.80;99.90
10889;DHT22;5497;51.388;6.780;2023-04-24T06:45:14;9.80;99.90
10889;DHT22;5497;51.388;6.780;2023-04-24T06:50:13;9.70;99.90
10889;DHT22;5497;51.388;6.780;2023-04-24T06:52:40;10.90;99.90
10889;DHT22;5497;51.388;6.780;2023-04-24T06:55:07;9.80;99.90
10889;DHT22;5497;51.388;6.780;2023-04-24T06:57:35;9.80;99.90
10889;DHT22;5497;51.388;6.780;2023-04-24T07:00:02;9.90;99.90
10889;DHT22;5497;51.388;6.780;2023-04-24T07:02:30;10.30;99.90
10889;DHT22;5497;51.388;6.780;2023-04-24T07:04:57;10.30;99.90
10889;DHT22;5497;51.388;6.780;2023-04-24T07:07:27;10.40;99.90
10889;DHT22;5497;51.388;6.780;2023-04-24T07:09:55;10.40;99.90
10889;DHT22;5497;51.388;6.780;2023-04-24T07:12:22;10.40;99.90
10889;DHT22;5497;51.388;6.780;2023-04-24T07:14:50;10.40;99.90
10889;DHT22;5497;51.388;6.780;2023-04-24T07:17:17;10.40;99.90
10889;DHT22;5497;51.388;6.780;2023-04-24T07:19:44;10.30;99.90
10889;DHT22;5497;51.388;6.780;2023-04-24T07:22:11;10.20;99.90
10889;DHT22;5497;51.388;6.780;2023-04-24T07:24:43;10.20;99.90
10889;DHT22;5497;51.388;6.780;2023-04-24T07:27:10;10.10;99.90
10889;DHT22;5497;51.388;6.780;2023-04-24T07:29:38;10.10;99.90
10889;DHT22;5497;51.388;6.780;2023-04-24T07:32:05;10.10;99.90
10889;DHT22;5497;51.388;6.780;2023-04-24T07:34:33;10.10;99.90
10889;DHT22;5497;51.388;6.780;2023-04-24T07:37:00;10.20;99.90
10889;DHT22;5497;51.388;6.780;2023-04-24T07:39:28;10.30;99.90
10889;DHT22;5497;51.388;6.780;2023-04-24T07:41:57;10.30;99.90
10889;DHT22;5497;51.388;6.780;2023-04-24T07:44:25;10.30;99.90
10889;DHT22;5497;51.388;6.780;2023-04-24T07:46:52;10.20;99.90
10889;DHT22;5497;51.388;6.780;2023-04-24T07:49:19;10.20;99.90
10889;DHT22;5497;51.388;6.780;2023-04-24T07:51:46;10.40;99.90
10889;DHT22;5497;51.388;6.780;2023-04-24T07:54:13;10.30;99.90
10889;DHT22;5497;51.388;6.780;2023-04-24T07:56:40;10.20;99.90
10889;DHT22;5497;51.388;6.780;2023-04-24T07:59:10;10.10;99.90
10889;DHT22;5497;51.388;6.780;2023-04-24T08:01:37;10.00;99.90
10889;DHT22;5497;51.388;6.780;2023-04-24T08:04:04;9.90;99.90
10889;DHT22;5497;51.388;6.780;2023-04-24T08:06:31;9.80;99.90
10889;DHT22;5497;51.388;6.780;2023-04-24T08:08:59;9.70;99.90
10889;DHT22;5497;51.388;6.780;2023-04-24T08:11:26;9.70;99.90
10889;DHT22;5497;51.388;6.780;2023-04-24T08:13:53;8.70;99.90
10889;DHT22;5497;51.388;6.780;2023-04-24T08:16:23;9.70;99.90
10889;DHT22;5497;51.388;6.780;2023-04-24T08:18:50;9.70;99.90
10889;DHT22;5497;51.388;6.780;2023-04-24T08:21:21;9.70;99.90
10889;DHT22;5497;51.388;6.780;2023-04-24T08:23:49;9.70;99.90
10889;DHT22;5497;51.388;6.780;2023-04-24T08:26:18;9.60;99.90
10889;DHT22;5497;51.388;6.780;2023-04-24T08:28:48;9.80;99.90
10889;DHT22;5497;51.388;6.780;2023-04-24T08:31:17;9.80;99.90
10889;DHT22;5497;51.388;6.780;2023-04-24T08:33:47;9.90;99.90
10889;DHT22;5497;51.388;6.780;2023-04-24T08:36:15;10.00;99.90
10889;DHT22;5497;51.388;6.780;2023-04-24T08:38:42;10.10;99.90
10889;DHT22;5497;51.388;6.780;2023-04-24T08:41:09;10.20;99.90
10889;DHT22;5497;51.388;6.780;2023-04-24T08:43:36;10.30;99.90
10889;DHT22;5497;51.388;6.780;2023-04-24T08:46:04;10.40;99.90
10889;DHT22;5497;51.388;6.780;2023-04-24T08:48:32;10.40;99.90
10889;DHT22;5497;51.388;6.780;2023-04-24T08:51:00;10.50;99.90
10889;DHT22;5497;51.388;6.780;2023-04-24T08:53:30;10.70;99.90
10889;DHT22;5497;51.388;6.780;2023-04-24T08:55:57;10.60;99.90
10889;DHT22;5497;51.388;6.780;2023-04-24T08:58:25;10.50;99.90
10889;DHT22;5497;51.388;6.780;2023-04-24T09:00:53;10.50;99.90
10889;DHT22;5497;51.388;6.780;2023-04-24T09:03:21;10.30;99.90
10889;DHT22;5497;51.388;6.780;2023-04-24T09:05:48;10.20;99.90
10889;DHT22;5497;51.388;6.780;2023-04-24T09:08:17;10.10;99.90
10889;DHT22;5497;51.388;6.780;2023-04-24T09:10:44;10.10;99.90
10889;DHT22;5497;51.388;6.780;2023-04-24T09:13:11;10.10;99.90
10889;DHT22;5497;51.388;6.780;2023-04-24T09:15:39;10.10;99.90
10889;DHT22;5497;51.388;6.780;2023-04-24T09:18:07;10.20;99.90
10889;DHT22;5497;51.388;6.780;2023-04-24T09:20:34;10.20;99.90
10889;DHT22;5497;51.388;6.780;2023-04-24T09:23:01;10.20;99.90
10889;DHT22;5497;51.388;6.780;2023-04-24T09:28:02;10.20;99.90
10889;DHT22;5497;51.388;6.780;2023-04-24T09:30:30;10.20;99.90
10889;DHT22;5497;51.388;6.780;2023-04-24T09:33:12;10.20;99.90
10889;DHT22;5497;51.388;6.780;2023-04-24T09:35:50;10.30;99.90
10889;DHT22;5497;51.388;6.780;2023-04-24T09:38:31;10.10;99.90
10889;DHT22;5497;51.388;6.780;2023-04-24T09:41:01;10.10;99.90
10889;DHT22;5497;51.388;6.780;2023-04-24T09:43:29;10.00;99.90
10889;DHT22;5497;51.388;6.780;2023-04-24T09:45:58;10.00;99.90
10889;DHT22;5497;51.388;6.780;2023-04-24T09:48:32;10.00;99.90
10889;DHT22;5497;51.388;6.780;2023-04-24T09:51:01;9.90;99.90
10889;DHT22;5497;51.388;6.780;2023-04-24T09:53:29;9.90;99.90
10889;DHT22;5497;51.388;6.780;2023-04-24T09:56:07;9.80;99.90
10889;DHT22;5497;51.388;6.780;2023-04-24T09:58:35;9.80;99.90
10889;DHT22;5497;51.388;6.780;2023-04-24T10:01:03;9.90;99.90
10889;DHT22;5497;51.388;6.780;2023-04-24T10:03:32;9.90;99.90
10889;DHT22;5497;51.388;6.780;2023-04-24T10:06:02;9.80;99.90
10889;DHT22;5497;51.388;6.780;2023-04-24T10:08:35;10.00;99.90
10889;DHT22;5497;51.388;6.780;2023-04-24T10:11:04;10.20;99.90
10889;DHT22;5497;51.388;6.780;2023-04-24T10:13:32;10.40;99.90
10889;DHT22;5497;51.388;6.780;2023-04-24T10:16:00;10.50;99.90
10889;DHT22;5497;51.388;6.780;2023-04-24T10:18:29;10.80;99.90
10889;DHT22;5497;51.388;6.780;2023-04-24T10:21:00;10.90;99.90
10889;DHT22;5497;51.388;6.780;2023-04-24T10:23:28;11.10;99.90
10889;DHT22;5497;51.388;6.780;2023-04-24T10:25:57;11.10;99.90
10889;DHT22;5497;51.388;6.780;2023-04-24T10:28:27;11.20;99.90
10889;DHT22;5497;51.388;6.780;2023-04-24T10:30:55;11.30;99.90
10889;DHT22;5497;51.388;6.780;2023-04-24T10:33:23;11.30;99.90
10889;DHT22;5497;51.388;6.780;2023-04-24T10:35:51;11.30;99.90
10889;DHT22;5497;51.388;6.780;2023-04-24T10:38:24;11.30;99.90
10889;DHT22;5497;51.388;6.780;2023-04-24T10:40:51;11.30;99.90
10889;DHT22;5497;51.388;6.780;2023-04-24T10:43:25;11.40;99.90
10889;DHT22;5497;51.388;6.780;2023-04-24T10:46:03;11.40;99.90
10889;DHT22;5497;51.388;6.780;2023-04-24T10:48:32;11.50;99.90
10889;DHT22;5497;51.388;6.780;2023-04-24T10:50:59;11.50;99.90
10889;DHT22;5497;51.388;6.780;2023-04-24T10:53:29;11.50;99.90
10889;DHT22;5497;51.388;6.780;2023-04-24T10:56:03;11.60;99.90
10889;DHT22;5497;51.388;6.780;2023-04-24T10:58:41;12.00;99.90
10889;DHT22;5497;51.388;6.780;2023-04-24T11:01:23;12.10;99.90
10889;DHT22;5497;51.388;6.780;2023-04-24T11:03:54;12.30;99.90
10889;DHT22;5497;51.388;6.780;2023-04-24T11:06:29;12.60;99.90
10889;DHT22;5497;51.388;6.780;2023-04-24T11:09:03;12.90;99.90
10889;DHT22;5497;51.388;6.780;2023-04-24T11:11:32;13.20;99.90
10889;DHT22;5497;51.388;6.780;2023-04-24T11:14:08;13.30;99.90
10889;DHT22;5497;51.388;6.780;2023-04-24T11:16:42;13.40;99.90
10889;DHT22;5497;51.388;6.780;2023-04-24T11:19:23;13.00;99.90
10889;DHT22;5497;51.388;6.780;2023-04-24T11:21:57;12.90;99.90
10889;DHT22;5497;51.388;6.780;2023-04-24T11:24:38;12.90;99.90
10889;DHT22;5497;51.388;6.780;2023-04-24T11:27:21;13.70;99.90
10889;DHT22;5497;51.388;6.780;2023-04-24T11:29:59;12.90;99.90
10889;DHT22;5497;51.388;6.780;2023-04-24T11:32:30;12.60;99.90
10889;DHT22;5497;51.388;6.780;2023-04-24T11:35:01;12.60;99.90
10889;DHT22;5497;51.388;6.780;2023-04-24T11:37:34;12.50;99.90
10889;DHT22;5497;51.388;6.780;2023-04-24T11:40:03;12.60;99.90
10889;DHT22;5497;51.388;6.780;2023-04-24T11:42:36;12.90;99.90
10889;DHT22;5497;51.388;6.780;2023-04-24T11:45:18;13.30;99.90
10889;DHT22;5497;51.388;6.780;2023-04-24T11:47:49;13.30;99.90
10889;DHT22;5497;51.388;6.780;2023-04-24T11:50:22;13.60;99.90
10889;DHT22;5497;51.388;6.780;2023-04-24T11:52:52;13.80;99.90
10889;DHT22;5497;51.388;6.780;2023-04-24T11:55:28;14.00;99.90
10889;DHT22;5497;51.388;6.780;2023-04-24T11:58:08;14.00;99.90
10889;DHT22;5497;51.388;6.780;2023-04-24T12:00:37;13.70;99.90
10889;DHT22;5497;51.388;6.780;2023-04-24T12:03:07;13.30;99.90
10889;DHT22;5497;51.388;6.780;2023-04-24T12:05:37;12.90;99.90
10889;DHT22;5497;51.388;6.780;2023-04-24T12:08:08;12.60;99.90
10889;DHT22;5497;51.388;6.780;2023-04-24T12:10:38;12.40;99.90
10889;DHT22;5497;51.388;6.780;2023-04-24T12:13:11;12.30;99.90
10889;DHT22;5497;51.388;6.780;2023-04-24T12:15:50;12.20;99.90
10889;DHT22;5497;51.388;6.780;2023-04-24T12:18:33;12.10;99.90
10889;DHT22;5497;51.388;6.780;2023-04-24T12:21:24;12.20;99.90
10889;DHT22;5497;51.388;6.780;2023-04-24T12:24:01;12.20;99.90
10889;DHT22;5497;51.388;6.780;2023-04-24T12:26:32;12.30;99.90
10889;DHT22;5497;51.388;6.780;2023-04-24T12:29:04;12.30;99.90
10889;DHT22;5497;51.388;6.780;2023-04-24T12:31:38;12.50;99.90
10889;DHT22;5497;51.388;6.780;2023-04-24T12:34:18;12.60;99.90
10889;DHT22;5497;51.388;6.780;2023-04-24T12:36:49;12.80;99.90
10889;DHT22;5497;51.388;6.780;2023-04-24T12:39:20;12.90;99.90
10889;DHT22;5497;51.388;6.780;2023-04-24T12:41:56;13.20;99.90
10889;DHT22;5497;51.388;6.780;2023-04-24T12:44:31;13.30;99.90
10889;DHT22;5497;51.388;6.780;2023-04-24T12:47:03;13.40;99.90
10889;DHT22;5497;51.388;6.780;2023-04-24T12:49:31;13.40;99.90
10889;DHT22;5497;51.388;6.780;2023-04-24T12:52:00;13.30;99.90
10889;DHT22;5497;51.388;6.780;2023-04-24T12:54:32;13.40;99.90
10889;DHT22;5497;51.388;6.780;2023-04-24T12:57:01;13.40;99.90
10889;DHT22;5497;51.388;6.780;2023-04-24T12:59:29;13.60;99.90
10889;DHT22;5497;51.388;6.780;2023-04-24T13:01:59;13.20;99.90
10889;DHT22;5497;51.388;6.780;2023-04-24T13:04:38;13.20;99.90
10889;DHT22;5497;51.388;6.780;2023-04-24T13:07:06;12.30;99.90
10889;DHT22;5497;51.388;6.780;2023-04-24T13:09:34;12.40;99.90
10889;DHT22;5497;51.388;6.780;2023-04-24T13:12:03;11.90;99.90
10889;DHT22;5497;51.388;6.780;2023-04-24T13:14:31;11.90;99.90
10889;DHT22;5497;51.388;6.780;2023-04-24T13:17:00;12.00;99.90
10889;DHT22;5497;51.388;6.780;2023-04-24T13:19:28;11.80;99.90
10889;DHT22;5497;51.388;6.780;2023-04-24T13:21:56;11.70;99.90
10889;DHT22;5497;51.388;6.780;2023-04-24T13:24:24;11.70;99.90
10889;DHT22;5497;51.388;6.780;2023-04-24T13:26:53;11.80;99.90
10889;DHT22;5497;51.388;6.780;2023-04-24T13:29:22;11.80;99.90
10889;DHT22;5497;51.388;6.780;2023-04-24T13:31:51;12.10;99.90
10889;DHT22;5497;51.388;6.780;2023-04-24T13:34:21;12.10;99.90
10889;DHT22;5497;51.388;6.780;2023-04-24T13:36:52;12.60;99.90
10889;DHT22;5497;51.388;6.780;2023-04-24T13:39:23;12.80;99.90
10889;DHT22;5497;51.388;6.780;2023-04-24T13:42:02;13.30;99.90
10889;DHT22;5497;51.388;6.780;2023-04-24T13:44:31;13.40;99.90
10889;DHT22;5497;51.388;6.780;2023-04-24T13:47:03;13.50;99.90
10889;DHT22;5497;51.388;6.780;2023-04-24T13:49:37;13.50;99.90
10889;DHT22;5497;51.388;6.780;2023-04-24T13:52:05;13.50;99.90
10889;DHT22;5497;51.388;6.780;2023-04-24T13:54:35;13.50;99.90
10889;DHT22;5497;51.388;6.780;2023-04-24T13:57:03;13.40;99.90
10889;DHT22;5497;51.388;6.780;2023-04-24T13:59:31;13.40;99.90
10889;DHT22;5497;51.388;6.780;2023-04-24T14:02:00;13.40;99.90
10889;DHT22;5497;51.388;6.780;2023-04-24T14:06:56;13.60;99.90
10889;DHT22;5497;51.388;6.780;2023-04-24T14:09:23;13.90;99.90
10889;DHT22;5497;51.388;6.780;2023-04-24T14:11:53;14.20;99.90
10889;DHT22;5497;51.388;6.780;2023-04-24T14:14:20;14.20;99.90
10889;DHT22;5497;51.388;6.780;2023-04-24T14:16:48;14.30;99.90
10889;DHT22;5497;51.388;6.780;2023-04-24T14:19:15;14.30;99.90
10889;DHT22;5497;51.388;6.780;2023-04-24T14:21:42;14.30;99.90
10889;DHT22;5497;51.388;6.780;2023-04-24T14:24:10;14.30;99.90
10889;DHT22;5497;51.388;6.780;2023-04-24T14:26:40;15.90;99.90
10889;DHT22;5497;51.388;6.780;2023-04-24T14:29:09;14.30;99.90
10889;DHT22;5497;51.388;6.780;2023-04-24T14:31:36;14.20;99.90
10889;DHT22;5497;51.388;6.780;2023-04-24T14:34:03;13.80;99.90
10889;DHT22;5497;51.388;6.780;2023-04-24T14:36:36;13.50;99.90
10889;DHT22;5497;51.388;6.780;2023-04-24T14:39:04;13.20;99.90
10889;DHT22;5497;51.388;6.780;2023-04-24T14:41:33;12.90;99.90
10889;DHT22;5497;51.388;6.780;2023-04-24T14:44:01;12.70;99.90
10889;DHT22;5497;51.388;6.780;2023-04-24T14:46:30;12.60;99.90
10889;DHT22;5497;51.388;6.780;2023-04-24T14:48:57;12.40;99.90
10889;DHT22;5497;51.388;6.780;2023-04-24T14:51:25;12.20;99.90
10889;DHT22;5497;51.388;6.780;2023-04-24T14:53:52;12.10;99.90
10889;DHT22;5497;51.388;6.780;2023-04-24T14:56:19;12.60;99.90
10889;DHT22;5497;51.388;6.780;2023-04-24T14:58:46;12.10;99.90
10889;DHT22;5497;51.388;6.780;2023-04-24T15:01:13;12.10;99.90
10889;DHT22;5497;51.388;6.780;2023-04-24T15:03:41;12.20;99.90
10889;DHT22;5497;51.388;6.780;2023-04-24T15:06:08;12.40;99.90
10889;DHT22;5497;51.388;6.780;2023-04-24T15:08:35;12.50;99.90
10889;DHT22;5497;51.388;6.780;2023-04-24T15:11:02;12.60;99.90
10889;DHT22;5497;51.388;6.780;2023-04-24T15:13:29;12.70;99.90
10889;DHT22;5497;51.388;6.780;2023-04-24T15:15:56;12.90;99.90
10889;DHT22;5497;51.388;6.780;2023-04-24T15:18:23;13.00;99.90
10889;DHT22;5497;51.388;6.780;2023-04-24T15:20:52;13.00;99.90
10889;DHT22;5497;51.388;6.780;2023-04-24T15:23:19;13.20;99.90
10889;DHT22;5497;51.388;6.780;2023-04-24T15:25:49;13.40;99.90
10889;DHT22;5497;51.388;6.780;2023-04-24T15:28:16;13.40;99.90
10889;DHT22;5497;51.388;6.780;2023-04-24T15:30:43;13.40;99.90
10889;DHT22;5497;51.388;6.780;2023-04-24T15:33:10;13.30;99.90
10889;DHT22;5497;51.388;6.780;2023-04-24T15:35:38;13.20;99.90
10889;DHT22;5497;51.388;6.780;2023-04-24T15:38:07;13.20;99.90
10889;DHT22;5497;51.388;6.780;2023-04-24T15:40:34;13.40;99.90
10889;DHT22;5497;51.388;6.780;2023-04-24T15:43:00;13.60;99.90
10889;DHT22;5497;51.388;6.780;2023-04-24T15:45:27;13.60;99.90
10889;DHT22;5497;51.388;6.780;2023-04-24T15:47:55;13.40;99.90
10889;DHT22;5497;51.388;6.780;2023-04-24T15:50:22;13.30;99.90
10889;DHT22;5497;51.388;6.780;2023-04-24T15:52:49;13.30;99.90
10889;DHT22;5497;51.388;6.780;2023-04-24T15:55:18;13.30;99.90
10889;DHT22;5497;51.388;6.780;2023-04-24T15:57:45;13.20;99.90
10889;DHT22;5497;51.388;6.780;2023-04-24T16:00:12;13.20;99.90
10889;DHT22;5497;51.388;6.780;2023-04-24T16:02:39;13.20;99.90
10889;DHT22;5497;51.388;6.780;2023-04-24T16:05:07;13.20;99.90
10889;DHT22;5497;51.388;6.780;2023-04-24T16:07:34;13.10;99.90
10889;DHT22;5497;51.388;6.780;2023-04-24T16:10:01;12.80;99.90
10889;DHT22;5497;51.388;6.780;2023-04-24T16:12:29;12.80;99.90
10889;DHT22;5497;51.388;6.780;2023-04-24T16:14:56;12.90;99.90
10889;DHT22;5497;51.388;6.780;2023-04-24T16:17:24;13.10;99.90
10889;DHT22;5497;51.388;6.780;2023-04-24T16:19:51;13.30;99.90
10889;DHT22;5497;51.388;6.780;2023-04-24T16:22:18;13.30;99.90